Time;durP1;ratioP1;P1;durP2;ratioP2;P2;SDS_P1;SDS_P2;PMS_P1;PMS_P2;Temp;Humidity;BMP_temperature;BMP_pressure;BME280_temperature;BME280_humidity;BME280_pressure;Samples;Min_cycle;Max_cycle;Signal;HPM_P1;HPM_P2
2021/12/01 00:02:05;;;;;;;9.10;7.00;;;;;;;0.84;66.24;97295.18;1712953;83;21555;-39
2021/12/01 00:04:36;;;;;;;10.72;7.80;;;;;;;0.83;66.84;97301.63;1720789;83;21080;-39
2021/12/01 00:07:03;;;;;;;;;;;;;;;0.82;67.85;97299.33;1724857;83;21064;-39
2021/12/01 00:09:30;;;;;;;10.48;7.97;;;;;;;0.75;68.72;97289.25;1710955;83;20176;-39
2021/12/01 00:12:09;;;;;;;10.70;7.55;;;;;;;0.63;69.58;97285.33;1688012;83;20980;-39
2021/12/01 00:14:38;;;;;;;11.10;8.78;;;;;;;0.67;69.77;97279.55;1695517;83;20921;-39
2021/12/01 00:17:10;;;;;;;11.28;7.95;;;;;;;0.65;69.99;97270.33;1694922;83;21291;-39
2021/12/01 00:19:34;;;;;;;9.75;7.90;;;;;;;0.66;70.12;97269.22;1720205;83;21076;-39
2021/12/01 00:22:03;;;;;;;9.70;7.60;;;;;;;0.67;70.08;97270.77;1720769;83;21563;-39
2021/12/01 00:24:30;;;;;;;11.00;8.20;;;;;;;0.68;70.16;97265.63;1721300;83;20989;-39
2021/12/01 00:26:57;;;;;;;12.65;9.53;;;;;;;0.71;70.18;97270.29;1705636;83;21535;-39
2021/12/01 00:29:33;;;;;;;11.97;8.25;;;;;;;0.73;70.20;97276.03;1721795;83;21001;-39
2021/12/01 00:32:00;;;;;;;11.68;8.25;;;;;;;0.75;70.24;97279.92;1723942;82;21029;-39
2021/12/01 00:34:29;;;;;;;11.75;8.05;;;;;;;0.74;70.19;97272.26;1745655;82;21033;-40
2021/12/01 00:36:56;;;;;;;11.08;7.80;;;;;;;0.74;70.16;97270.92;1727326;82;21048;-39
2021/12/01 00:39:23;;;;;;;12.10;8.35;;;;;;;0.70;70.17;97270.84;1712165;83;21164;-39
2021/12/01 00:41:52;;;;;;;10.08;7.83;;;;;;;0.65;70.27;97269.00;1735760;82;20956;-39
2021/12/01 00:44:19;;;;;;;10.20;8.23;;;;;;;0.66;70.19;97266.55;1727592;83;21126;-39
2021/12/01 00:47:03;;;;;;;12.05;8.78;;;;;;;0.63;70.28;97263.25;1709958;83;20986;-39
2021/12/01 00:49:28;;;;;;;10.10;7.58;;;;;;;0.64;70.21;97257.55;1705668;83;21004;-39
2021/12/01 00:51:59;;;;;;;12.58;7.97;;;;;;;0.61;70.36;97260.92;1712427;83;20900;-39
2021/12/01 00:54:29;;;;;;;11.80;7.90;;;;;;;0.62;70.60;97247.81;1721227;83;21033;-39
2021/12/01 00:56:56;;;;;;;10.43;7.62;;;;;;;0.63;70.66;97241.34;1706486;83;21034;-39
2021/12/01 00:59:23;;;;;;;12.55;7.78;;;;;;;0.62;70.88;97243.03;1726665;83;20991;-39
2021/12/01 01:01:49;;;;;;;12.85;8.15;;;;;;;0.60;71.06;97232.70;1729766;83;21031;-39
2021/12/01 01:04:17;;;;;;;10.68;7.97;;;;;;;0.61;71.12;97236.92;1729582;83;21149;-39
2021/12/01 01:06:44;;;;;;;10.32;7.15;;;;;;;0.60;71.30;97234.59;1721213;83;21570;-39
2021/12/01 01:09:11;;;;;;;11.20;7.80;;;;;;;0.54;71.56;97222.64;1714542;83;21035;-39
2021/12/01 01:18:05;;;;;;;10.32;7.72;;;;;;;0.38;73.97;97225.34;1729174;83;21146;-39
2021/12/01 01:19:43;;;;;;;;;;;;;;;0.31;74.51;97215.83;1692956;83;21038;-39
2021/12/01 01:22:10;;;;;;;9.98;7.60;;;;;;;0.31;74.15;97211.27;1711285;83;20170;-39
2021/12/01 01:24:37;;;;;;;11.38;7.67;;;;;;;0.19;74.40;97214.59;1729090;82;21531;-39
2021/12/01 01:27:05;;;;;;;10.35;7.50;;;;;;;0.20;74.33;97202.80;1743578;82;21008;-39
2021/12/01 01:29:36;;;;;;;11.08;7.47;;;;;;;0.21;74.37;97203.80;1715677;83;21132;-39
2021/12/01 01:32:05;;;;;;;9.60;6.95;;;;;;;0.19;74.26;97195.39;1715670;83;21031;-39
2021/12/01 01:34:34;;;;;;;12.88;8.15;;;;;;;0.16;74.48;97204.05;1713922;83;20917;-39
2021/12/01 01:37:05;;;;;;;11.25;7.62;;;;;;;0.17;74.48;97196.83;1705448;83;21044;-39
2021/12/01 01:39:38;;;;;;;10.05;7.40;;;;;;;0.15;74.48;97193.73;1710990;83;21207;-39
2021/12/01 01:42:06;;;;;;;13.35;7.87;;;;;;;0.13;74.68;97193.31;1710294;83;21211;-39
2021/12/01 01:44:33;;;;;;;10.95;7.30;;;;;;;0.13;74.82;97178.10;1710185;82;21603;-39
2021/12/01 01:47:03;;;;;;;12.60;7.85;;;;;;;0.11;74.73;97171.00;1701399;83;21122;-39
2021/12/01 01:52:16;;;;;;;8.85;6.90;;;;;;;0.12;74.64;97169.11;1709404;83;21060;-49
2021/12/01 01:54:44;;;;;;;11.00;7.58;;;;;;;0.11;74.42;97171.55;1704963;83;21141;-39
2021/12/01 01:57:11;;;;;;;10.35;7.72;;;;;;;0.10;74.41;97160.13;1709853;83;21077;-39
2021/12/01 01:59:38;;;;;;;10.03;7.30;;;;;;;0.12;74.29;97160.56;1719003;83;20973;-39
2021/12/01 02:02:05;;;;;;;10.13;7.37;;;;;;;0.15;74.14;97161.20;1712604;83;21324;-39
2021/12/01 02:04:33;;;;;;;10.30;7.15;;;;;;;0.13;74.08;97152.80;1706943;83;21833;-39
2021/12/01 02:07:02;;;;;;;10.08;7.22;;;;;;;0.12;74.15;97153.91;1709947;83;21941;-39
2021/12/01 02:09:36;;;;;;;11.90;7.05;;;;;;;0.14;74.16;97158.34;1710049;83;21000;-39
2021/12/01 02:12:05;;;;;;;8.00;6.47;;;;;;;0.15;74.23;97142.55;1720654;83;21024;-39
2021/12/01 02:14:32;;;;;;;9.90;7.35;;;;;;;0.14;74.41;97152.23;1715652;83;21021;-39
2021/12/01 02:17:00;;;;;;;9.28;7.17;;;;;;;0.15;74.39;97147.88;1710597;83;21437;-39
2021/12/01 02:19:27;;;;;;;9.75;7.47;;;;;;;0.16;74.42;97153.42;1719096;83;21628;-39
2021/12/01 02:21:54;;;;;;;9.40;7.03;;;;;;;0.18;74.38;97155.20;1720116;83;21012;-39
2021/12/01 02:24:23;;;;;;;10.45;7.78;;;;;;;0.19;74.34;97147.98;1709638;83;21025;-39
2021/12/01 02:26:51;;;;;;;10.50;6.97;;;;;;;0.18;74.42;97141.88;1705093;83;21041;-39
2021/12/01 02:29:25;;;;;;;9.85;7.22;;;;;;;0.18;74.42;97141.88;1694215;83;21044;-39
2021/12/01 02:31:53;;;;;;;11.68;7.50;;;;;;;0.20;74.32;97154.83;1721090;83;21114;-40
2021/12/01 02:34:23;;;;;;;11.63;7.17;;;;;;;0.20;74.20;97148.17;1716905;83;20984;-40
2021/12/01 02:36:56;;;;;;;10.55;7.08;;;;;;;0.24;74.21;97150.38;1713547;83;21001;-39
2021/12/01 02:39:24;;;;;;;7.90;6.58;;;;;;;0.25;74.20;97151.35;1739196;82;20977;-40
2021/12/01 02:41:54;;;;;;;12.07;7.78;;;;;;;0.30;74.05;97147.09;1778999;80;21510;-39
2021/12/01 02:44:21;;;;;;;;;;;;;;;0.33;74.06;97146.42;1746306;80;21061;-39
2021/12/01 02:46:48;;;;;;;10.25;7.17;;;;;;;0.37;73.99;97152.59;1749485;80;20151;-39
2021/12/01 02:49:22;;;;;;;10.13;6.90;;;;;;;0.37;74.17;97145.94;1773374;80;20949;-40
2021/12/01 02:51:51;;;;;;;9.10;7.40;;;;;;;0.43;74.20;97137.89;1778468;80;21092;-39
2021/12/01 02:54:18;;;;;;;11.03;7.10;;;;;;;0.49;74.15;97134.93;1760128;80;20985;-40
2021/12/01 02:56:47;;;;;;;10.28;6.53;;;;;;;0.50;74.18;97137.81;1778508;80;21817;-39
2021/12/01 02:59:15;;;;;;;10.57;7.07;;;;;;;0.52;74.25;97143.59;1778677;80;21861;-40
2021/12/01 03:01:44;;;;;;;10.05;7.58;;;;;;;0.55;74.19;97135.66;1768836;80;21033;-40
2021/12/01 03:04:13;;;;;;;11.00;7.37;;;;;;;0.55;74.31;97132.22;1761211;80;21003;-39
2021/12/01 03:06:42;;;;;;;12.70;7.37;;;;;;;0.58;74.35;97138.20;1753688;80;20999;-39
2021/12/01 03:09:09;;;;;;;10.13;7.73;;;;;;;0.60;74.35;97142.61;1773909;80;21154;-39
2021/12/01 03:11:38;;;;;;;10.38;7.37;;;;;;;0.60;74.31;97138.61;1750908;80;20988;-40
2021/12/01 03:14:15;;;;;;;7.87;6.83;;;;;;;0.63;74.19;97129.94;1755016;80;21011;-40
2021/12/01 03:16:45;;;;;;;9.13;6.65;;;;;;;0.65;74.19;97139.67;1778887;80;21012;-40
2021/12/01 03:19:12;;;;;;;10.38;6.37;;;;;;;0.70;74.07;97142.07;1777495;80;21092;-41
2021/12/01 03:21:41;;;;;;;8.60;6.53;;;;;;;0.74;74.03;97135.69;1776491;80;21195;-41
2021/12/01 03:24:11;;;;;;;10.50;7.30;;;;;;;0.75;74.08;97129.80;1746152;80;21528;-41
2021/12/01 03:26:38;;;;;;;9.65;6.95;;;;;;;0.72;74.20;97127.84;1753885;80;21283;-40
2021/12/01 03:29:07;;;;;;;8.75;5.92;;;;;;;0.71;74.29;97125.73;1761641;80;21000;-41
2021/12/01 03:31:34;;;;;;;8.75;6.87;;;;;;;0.74;74.20;97129.58;1779111;80;21024;-40
2021/12/01 03:34:05;;;;;;;9.70;7.25;;;;;;;0.73;74.23;97128.03;1745463;80;21577;-40
2021/12/01 03:36:32;;;;;;;11.78;7.08;;;;;;;0.71;74.35;97131.62;1727092;81;21509;-41
2021/12/01 03:39:20;;;;;;;8.93;7.10;;;;;;;0.71;74.41;97134.29;1744532;81;20981;-40
2021/12/01 03:41:48;;;;;;;7.85;6.35;;;;;;;0.75;74.23;97131.13;1744258;81;21505;-40
2021/12/01 03:44:17;;;;;;;8.63;6.75;;;;;;;0.74;74.41;97125.58;1735367;81;21102;-40
2021/12/01 03:47:56;;;;;;;8.35;6.58;;;;;;;0.74;74.59;97128.25;1790691;79;23522;-39
2021/12/01 03:50:25;;;;;;;7.72;6.03;;;;;;;0.72;74.53;97123.84;1757008;81;21021;-39
2021/12/01 03:52:53;;;;;;;9.60;6.55;;;;;;;0.76;74.67;97119.35;1743378;81;21126;-41
2021/12/01 03:55:20;;;;;;;11.40;7.50;;;;;;;0.78;74.74;97127.76;1753067;81;21025;-39
2021/12/01 03:57:48;;;;;;;9.80;7.08;;;;;;;0.78;74.83;97126.42;1741348;81;20913;-40
2021/12/01 04:00:24;;;;;;;8.15;6.42;;;;;;;0.81;74.81;97132.41;1735711;81;20962;-39
2021/12/01 04:02:53;;;;;;;8.90;6.37;;;;;;;0.87;74.70;97139.02;1732131;81;21000;-40
2021/12/01 04:05:21;;;;;;;9.48;6.47;;;;;;;0.94;74.49;97133.05;1754377;81;21127;-40
2021/12/01 04:07:49;;;;;;;9.23;6.95;;;;;;;0.92;74.54;97129.97;1753040;80;20966;-40
2021/12/01 04:10:17;;;;;;;9.83;6.33;;;;;;;0.89;74.52;97132.77;1758807;81;21469;-39
2021/12/01 04:12:45;;;;;;;8.40;6.62;;;;;;;0.86;74.64;97129.47;1734131;81;20993;-40
2021/12/01 04:15:14;;;;;;;8.35;6.15;;;;;;;0.89;74.56;97131.43;1750358;81;21045;-39
2021/12/01 04:17:42;;;;;;;9.30;6.77;;;;;;;0.88;74.66;97131.98;1750052;81;21123;-40
2021/12/01 04:20:12;;;;;;;8.53;6.28;;;;;;;0.87;74.69;97132.36;1726850;81;21080;-39
2021/12/01 04:22:40;;;;;;;8.23;6.30;;;;;;;0.88;74.72;97126.65;1726809;81;21085;-39
2021/12/01 04:25:08;;;;;;;9.48;5.83;;;;;;;0.91;74.70;97132.42;1733064;81;21037;-39
2021/12/01 04:27:36;;;;;;;7.65;6.50;;;;;;;0.97;74.65;97124.36;1752067;81;21033;-39
2021/12/01 04:30:05;;;;;;;9.28;6.95;;;;;;;0.94;74.68;97120.48;1743778;81;21126;-39
2021/12/01 04:32:49;;;;;;;8.60;6.30;;;;;;;0.88;74.77;97125.31;1757153;81;21072;-39
2021/12/01 04:35:19;;;;;;;9.13;6.80;;;;;;;0.90;74.82;97135.64;1706137;83;20968;-39
2021/12/01 04:37:46;;;;;;;9.35;6.85;;;;;;;0.94;74.85;97136.48;1721367;83;21479;-39
2021/12/01 04:40:14;;;;;;;8.48;6.20;;;;;;;0.93;74.91;97135.49;1689061;85;21084;-39
2021/12/01 04:42:41;;;;;;;8.18;6.47;;;;;;;0.92;75.08;97141.39;1674789;83;21152;-38
2021/12/01 04:45:14;;;;;;;9.13;6.90;;;;;;;0.92;75.04;97145.39;1676323;83;21065;-39
2021/12/01 04:47:41;;;;;;;8.43;6.72;;;;;;;0.99;74.98;97144.21;1687937;83;21097;-39
2021/12/01 04:50:09;;;;;;;8.90;6.85;;;;;;;1.04;74.90;97153.27;1680585;84;21025;-39
2021/12/01 04:52:43;;;;;;;7.60;6.25;;;;;;;1.04;74.92;97149.83;1649395;84;20966;-39
2021/12/01 04:55:10;;;;;;;9.83;7.58;;;;;;;1.04;74.86;97147.16;1694197;84;21161;-39
2021/12/01 04:57:55;;;;;;;8.13;6.58;;;;;;;1.09;74.85;97150.89;1682256;84;20895;-38
2021/12/01 05:00:26;;;;;;;7.35;6.47;;;;;;;1.13;74.71;97150.39;1684948;84;20999;-39
2021/12/01 05:02:54;;;;;;;9.28;6.67;;;;;;;1.10;74.74;97155.11;1709087;83;21039;-39
2021/12/01 05:05:23;;;;;;;6.58;5.22;;;;;;;1.08;74.90;97157.34;1691940;84;21621;-39
2021/12/01 05:07:51;;;;;;;9.08;5.83;;;;;;;1.08;74.96;97143.44;1700116;83;21132;-39
2021/12/01 05:10:18;;;;;;;7.60;6.17;;;;;;;1.16;74.81;97145.70;1719356;83;21015;-39
2021/12/01 05:13:04;;;;;;;8.70;6.25;;;;;;;1.20;74.64;97142.54;1709221;83;20957;-38
2021/12/01 05:15:35;;;;;;;8.78;6.35;;;;;;;1.19;74.79;97143.09;1713745;83;21281;-40
2021/12/01 05:18:03;;;;;;;7.80;6.15;;;;;;;1.18;74.89;97149.55;1730873;82;21042;-39
2021/12/01 05:20:30;;;;;;;7.10;5.95;;;;;;;1.22;74.83;97145.05;1717942;83;21134;-39
2021/12/01 05:22:57;;;;;;;6.45;5.72;;;;;;;1.30;74.71;97159.33;1688395;84;21591;-39
2021/12/01 05:25:25;;;;;;;9.93;6.60;;;;;;;1.36;74.55;97162.45;1679500;84;20998;-39
2021/12/01 05:27:53;;;;;;;7.90;6.35;;;;;;;1.36;74.51;97160.56;1698753;84;21894;-39
2021/12/01 05:30:32;;;;;;;5.25;4.15;;;;;;;1.34;74.58;97170.84;1688217;83;21010;-39
2021/12/01 05:33:05;;;;;;;8.33;6.17;;;;;;;1.30;74.64;97173.45;1700712;84;21219;-39
2021/12/01 05:35:28;;;;;;;6.35;5.40;;;;;;;1.34;74.61;97172.73;1683864;84;21010;-39
2021/12/01 05:37:55;;;;;;;7.40;5.55;;;;;;;1.36;74.69;97177.92;1694465;83;21572;-39
2021/12/01 05:40:23;;;;;;;7.87;6.10;;;;;;;1.35;74.67;97188.41;1699995;83;21049;-39
2021/12/01 05:42:51;;;;;;;7.28;6.10;;;;;;;1.35;74.82;97189.74;1690100;84;21004;-39
2021/12/01 05:45:18;;;;;;;7.33;5.72;;;;;;;1.35;74.97;97197.75;1695173;84;21098;-39
2021/12/01 05:48:04;;;;;;;6.75;5.60;;;;;;;1.38;75.06;97197.03;1680914;84;20943;-40
2021/12/01 05:50:31;;;;;;;6.92;5.67;;;;;;;1.46;74.97;97206.72;1707256;84;21034;-39
2021/12/01 05:52:58;;;;;;;7.42;5.35;;;;;;;1.49;74.98;97209.27;1697738;82;21528;-39
2021/12/01 05:55:25;;;;;;;6.87;5.60;;;;;;;1.51;74.95;97213.67;1726043;82;21052;-40
2021/12/01 05:57:52;;;;;;;9.28;5.28;;;;;;;1.51;74.87;97211.78;1733095;82;21121;-39
2021/12/01 06:00:19;;;;;;;6.53;5.30;;;;;;;1.55;74.93;97230.56;1737249;82;20950;-39
2021/12/01 06:02:50;;;;;;;6.83;5.75;;;;;;;1.62;74.88;97221.34;1729663;82;21009;-39
2021/12/01 06:05:19;;;;;;;6.20;5.47;;;;;;;1.65;74.68;97220.63;1709747;82;21503;-39
2021/12/01 06:07:48;;;;;;;5.80;5.10;;;;;;;1.65;74.72;97225.96;1729576;82;20970;-39
2021/12/01 06:10:17;;;;;;;7.10;5.20;;;;;;;1.61;74.74;97232.58;1711947;83;21126;-39
2021/12/01 06:12:45;;;;;;;5.85;4.72;;;;;;;1.59;74.83;97233.51;1663369;84;21815;-39
2021/12/01 06:15:15;;;;;;;6.70;5.30;;;;;;;1.64;74.81;97232.45;1684679;84;20941;-39
2021/12/01 06:17:43;;;;;;;8.00;5.75;;;;;;;1.69;74.88;97245.52;1735956;82;21094;-39
2021/12/01 06:20:11;;;;;;;7.45;5.80;;;;;;;1.70;74.71;97245.70;1736282;81;21010;-39
2021/12/01 06:22:40;;;;;;;7.60;5.58;;;;;;;1.69;74.81;97253.53;1726030;81;21153;-39
2021/12/01 06:25:08;;;;;;;6.72;5.30;;;;;;;1.65;74.72;97253.45;1678593;85;21012;-39
2021/12/01 06:27:36;;;;;;;7.03;5.42;;;;;;;1.72;74.67;97256.83;1695424;83;20893;-39
2021/12/01 06:30:05;;;;;;;6.17;5.05;;;;;;;1.78;74.51;97262.11;1694409;84;21056;-39
2021/12/01 06:32:38;;;;;;;7.37;5.65;;;;;;;1.79;74.64;97262.32;1709477;81;21033;-39
2021/12/01 06:35:26;;;;;;;5.97;5.08;;;;;;;1.82;74.57;97273.63;1741086;80;21815;-39
2021/12/01 06:37:55;;;;;;;7.60;5.33;;;;;;;1.85;74.40;97275.58;1712917;80;21048;-39
2021/12/01 06:40:24;;;;;;;5.58;4.97;;;;;;;1.89;74.42;97267.66;1736519;82;21543;-46
2021/12/01 06:42:51;;;;;;;5.80;4.90;;;;;;;2.00;74.32;97274.73;1740385;80;21611;-40
2021/12/01 06:45:19;;;;;;;6.67;4.65;;;;;;;2.09;73.97;97273.94;1737612;82;21939;-39
2021/12/01 06:47:51;;;;;;;6.22;4.92;;;;;;;2.11;73.75;97279.72;1736365;81;21136;-39
2021/12/01 06:50:21;;;;;;;6.67;5.28;;;;;;;2.10;73.60;97280.84;1745340;81;21014;-39
2021/12/01 06:52:48;;;;;;;5.85;4.62;;;;;;;2.09;73.70;97291.31;1721613;81;21033;-39
2021/12/01 06:55:15;;;;;;;5.58;4.55;;;;;;;2.10;73.59;97294.20;1713543;83;21555;-39
2021/12/01 06:57:43;;;;;;;6.90;5.17;;;;;;;2.19;73.51;97304.09;1713608;83;21536;-39
2021/12/01 07:00:13;;;;;;;6.60;5.15;;;;;;;2.27;73.42;97304.25;1720514;82;21149;-39
2021/12/01 07:02:41;;;;;;;6.85;4.85;;;;;;;2.29;73.25;97311.33;1730793;81;20989;-39
2021/12/01 07:05:09;;;;;;;6.03;4.78;;;;;;;2.28;73.16;97313.78;1713811;82;21006;-39
2021/12/01 07:07:36;;;;;;;7.08;5.22;;;;;;;2.27;73.02;97313.05;1746587;81;21552;-39
2021/12/01 07:10:09;;;;;;;5.70;3.95;;;;;;;2.29;72.98;97319.34;1738536;82;21013;-39
2021/12/01 07:12:44;;;;;;;6.90;4.90;;;;;;;2.33;73.00;97324.97;1741462;82;21096;-39
2021/12/01 07:15:11;;;;;;;6.80;5.55;;;;;;;2.35;72.95;97328.08;1717773;81;21030;-39
2021/12/01 07:17:41;;;;;;;6.50;5.47;;;;;;;2.34;72.84;97329.76;1679826;85;20972;-39
2021/12/01 07:20:09;;;;;;;8.73;6.08;;;;;;;2.34;72.88;97331.09;1679217;85;20996;-39
2021/12/01 07:22:36;;;;;;;6.22;5.00;;;;;;;2.38;72.79;97334.59;1704062;84;20945;-40
2021/12/01 07:25:05;;;;;;;5.90;5.17;;;;;;;2.43;72.70;97335.09;1707660;84;21145;-39
2021/12/01 07:27:32;;;;;;;7.40;5.53;;;;;;;2.50;72.53;97338.46;1697571;84;20945;-39
2021/12/01 07:30:09;;;;;;;7.17;5.30;;;;;;;2.53;72.29;97343.09;1704267;84;21041;-39
2021/12/01 07:32:36;;;;;;;7.37;5.55;;;;;;;2.52;72.26;97342.88;1679233;85;21051;-39
2021/12/01 07:35:07;;;;;;;8.13;5.95;;;;;;;2.52;72.21;97345.55;1706517;83;20953;-39
2021/12/01 07:37:34;;;;;;;6.65;5.05;;;;;;;2.55;72.04;97355.00;1707808;84;21117;-39
2021/12/01 07:40:04;;;;;;;7.53;5.30;;;;;;;2.60;71.89;97358.72;1707335;84;20985;-39
2021/12/01 07:42:32;;;;;;;6.05;5.20;;;;;;;2.62;71.85;97365.03;1707349;83;21464;-39
2021/12/01 07:44:59;;;;;;;7.47;6.00;;;;;;;2.63;71.86;97367.36;1705480;84;21055;-39
2021/12/01 07:47:26;;;;;;;7.60;5.47;;;;;;;2.69;71.58;97371.86;1705399;83;21084;-39
2021/12/01 07:49:55;;;;;;;11.68;5.40;;;;;;;2.65;71.39;97372.36;1691489;83;21155;-39
2021/12/01 07:52:22;;;;;;;8.13;5.60;;;;;;;2.60;71.43;97373.42;1732666;80;20993;-39
2021/12/01 07:54:49;;;;;;;5.90;4.70;;;;;;;2.62;71.44;97378.41;1696847;83;21535;-39
2021/12/01 07:57:17;;;;;;;8.28;5.80;;;;;;;2.66;71.59;97388.63;1686591;83;21060;-39
2021/12/01 07:59:44;;;;;;;6.05;5.45;;;;;;;2.65;71.49;97392.42;1687281;83;21024;-40
2021/12/01 08:02:14;;;;;;;8.78;6.22;;;;;;;2.61;71.46;97400.36;1715118;83;21104;-41
2021/12/01 08:04:40;;;;;;;4.95;4.33;;;;;;;2.59;71.62;97400.52;1721469;82;21017;-41
2021/12/01 08:07:08;;;;;;;7.00;5.03;;;;;;;2.58;71.59;97413.68;1740358;82;20920;-41
2021/12/01 08:09:35;;;;;;;5.87;4.97;;;;;;;2.63;71.70;97410.72;1738110;80;21021;-41
2021/12/01 08:12:02;;;;;;;7.03;5.85;;;;;;;2.66;71.55;97416.72;1729398;82;21053;-41
2021/12/01 08:14:29;;;;;;;7.10;5.95;;;;;;;2.66;71.52;97419.39;1721212;83;21136;-41
2021/12/01 08:16:56;;;;;;;6.58;5.92;;;;;;;2.68;71.57;97430.50;1743963;82;20998;-41
2021/12/01 08:19:24;;;;;;;7.72;6.50;;;;;;;2.70;71.61;97431.48;1750287;82;21036;-41
2021/12/01 08:21:59;;;;;;;9.15;6.33;;;;;;;2.73;71.45;97434.22;1750575;82;21025;-41
2021/12/01 08:24:26;;;;;;;7.53;6.40;;;;;;;2.78;71.29;97436.61;1750592;82;21028;-41
2021/12/01 08:26:54;;;;;;;7.85;6.12;;;;;;;2.83;71.22;97436.88;1714317;83;21089;-41
2021/12/01 08:29:24;;;;;;;7.30;6.42;;;;;;;2.84;70.97;97441.11;1710910;82;21327;-41
2021/12/01 08:31:50;;;;;;;;;;;;;;;2.84;71.13;97442.45;1690326;85;21057;-41
2021/12/01 08:34:22;;;;;;;8.45;6.90;;;;;;;2.85;70.94;97444.78;1689412;85;20165;-41
2021/12/01 08:36:49;;;;;;;8.20;6.78;;;;;;;2.76;71.15;97448.81;1689809;85;21061;-41
2021/12/01 08:39:16;;;;;;;8.60;6.35;;;;;;;2.74;70.98;97447.81;1707579;84;21602;-41
2021/12/01 08:41:44;;;;;;;7.22;6.33;;;;;;;2.78;70.95;97449.21;1682614;84;21108;-41
2021/12/01 08:44:11;;;;;;;7.83;6.42;;;;;;;2.81;70.77;97451.94;1679141;85;21037;-41
2021/12/01 08:46:40;;;;;;;7.35;6.12;;;;;;;2.78;70.84;97452.66;1702187;83;21056;-41
2021/12/01 08:49:07;;;;;;;7.65;6.62;;;;;;;2.80;70.95;97461.13;1718676;83;21032;-41
2021/12/01 08:51:35;;;;;;;7.85;6.47;;;;;;;2.79;70.81;97469.50;1720813;83;21156;-41
2021/12/01 08:54:03;;;;;;;7.30;6.33;;;;;;;2.78;70.80;97475.41;1720981;83;21049;-42
2021/12/01 08:56:30;;;;;;;7.55;6.62;;;;;;;2.81;70.66;97477.37;1696338;83;21478;-41
2021/12/01 08:59:02;;;;;;;7.37;6.50;;;;;;;2.84;70.66;97484.70;1691921;84;21322;-41
2021/12/01 09:01:30;;;;;;;8.23;6.83;;;;;;;2.86;70.68;97487.78;1714089;83;21062;-39
2021/12/01 09:03:57;;;;;;;9.23;7.15;;;;;;;2.86;70.60;97484.33;1720784;83;21155;-41
2021/12/01 09:06:25;;;;;;;9.15;6.53;;;;;;;2.86;70.61;97491.02;1720626;83;21531;-41
2021/12/01 09:08:52;;;;;;;7.72;6.53;;;;;;;2.88;70.49;97496.24;1720612;83;21722;-41
2021/12/01 09:11:19;;;;;;;7.47;6.33;;;;;;;2.95;70.51;97487.58;1720419;83;21029;-41
2021/12/01 09:13:46;;;;;;;7.25;6.10;;;;;;;3.06;70.57;97498.68;1720690;83;21059;-41
2021/12/01 09:16:13;;;;;;;9.58;7.30;;;;;;;3.10;70.18;97502.00;1720563;83;21153;-41
2021/12/01 09:18:43;;;;;;;9.03;7.30;;;;;;;3.04;70.05;97504.19;1720545;83;21527;-41
2021/12/01 09:21:10;;;;;;;8.68;7.17;;;;;;;2.98;70.10;97512.30;1720704;83;21009;-41
2021/12/01 09:23:37;;;;;;;9.28;7.33;;;;;;;2.56;70.28;97464.09;1720635;83;21080;-41
2021/12/01 09:26:04;;;;;;;8.10;6.72;;;;;;;2.84;70.51;97517.38;1720643;83;21013;-41
2021/12/01 09:28:31;;;;;;;9.03;7.00;;;;;;;2.85;70.59;97528.30;1720343;83;21214;-41
2021/12/01 09:31:00;;;;;;;8.25;6.92;;;;;;;2.86;70.62;97531.94;1738919;82;21046;-41
2021/12/01 09:33:29;;;;;;;9.63;7.97;;;;;;;2.82;70.56;97533.78;1751006;82;21080;-41
2021/12/01 09:35:58;;;;;;;8.93;7.90;;;;;;;2.79;70.70;97537.73;1749444;82;21491;-41
2021/12/01 09:38:26;;;;;;;9.08;7.62;;;;;;;2.77;70.87;97543.98;1719165;82;21546;-41
2021/12/01 09:40:54;;;;;;;7.78;6.78;;;;;;;2.79;70.91;97540.41;1720737;83;21847;-41
2021/12/01 09:43:25;;;;;;;8.85;7.53;;;;;;;2.86;70.92;97549.34;1700717;83;21042;-41
2021/12/01 09:45:54;;;;;;;10.53;7.62;;;;;;;2.95;70.75;97553.91;1710711;83;21049;-41
2021/12/01 09:48:23;;;;;;;8.48;7.08;;;;;;;2.95;70.43;97557.92;1720378;83;21033;-41
2021/12/01 09:50:50;;;;;;;9.60;7.83;;;;;;;2.94;70.31;97564.42;1716650;83;21078;-41
2021/12/01 09:53:17;;;;;;;9.43;7.58;;;;;;;2.91;70.05;97566.45;1716061;83;21941;-41
2021/12/01 09:55:45;;;;;;;8.60;7.25;;;;;;;2.90;70.12;97566.83;1687252;85;21378;-41
2021/12/01 09:58:30;;;;;;;11.28;7.75;;;;;;;2.90;70.29;97570.84;1687480;85;21091;-41
2021/12/01 10:01:01;;;;;;;11.53;8.00;;;;;;;2.90;70.14;97574.30;1698339;82;20934;-41
2021/12/01 10:03:28;;;;;;;9.13;7.87;;;;;;;2.84;70.42;97577.59;1707512;83;21042;-41
2021/12/01 10:06:09;;;;;;;8.65;7.70;;;;;;;2.77;70.38;97581.44;1709854;83;21153;-41
2021/12/01 10:08:55;;;;;;;9.95;7.75;;;;;;;2.73;70.44;97584.61;1710328;83;20938;-41
2021/12/01 10:11:33;;;;;;;9.23;7.58;;;;;;;2.73;70.45;97592.64;1707738;83;21501;-41
2021/12/01 10:14:09;;;;;;;10.63;7.78;;;;;;;2.71;70.51;97594.91;1702342;83;21714;-41
2021/12/01 10:16:45;;;;;;;11.08;8.10;;;;;;;2.70;70.55;97595.47;1709156;83;21570;-41
2021/12/01 10:19:13;;;;;;;10.23;8.70;;;;;;;2.66;70.60;97598.64;1707998;83;21144;-41
2021/12/01 10:21:43;;;;;;;11.43;9.03;;;;;;;2.64;70.86;97599.54;1726830;83;20926;-41
2021/12/01 10:24:18;;;;;;;12.37;9.00;;;;;;;2.64;71.05;97610.23;1729738;82;21065;-41
2021/12/01 10:29:57;;;;;;;9.98;7.95;;;;;;;2.75;70.99;97619.28;1681779;85;21065;-40
2021/12/01 10:32:24;;;;;;;9.15;7.67;;;;;;;2.82;70.55;97622.65;1704168;83;21867;-40
2021/12/01 10:34:58;;;;;;;9.95;7.62;;;;;;;2.79;70.21;97624.13;1707236;83;21009;-41
2021/12/01 10:37:29;;;;;;;11.03;8.80;;;;;;;2.74;70.32;97629.76;1702242;83;21454;-41
2021/12/01 10:40:21;;;;;;;10.93;8.70;;;;;;;2.71;70.53;97638.47;1710050;83;20982;-41
2021/12/01 10:43:06;;;;;;;9.58;7.92;;;;;;;2.70;70.41;97642.30;1694759;83;21046;-40
2021/12/01 10:45:41;;;;;;;9.43;7.35;;;;;;;2.70;70.41;97639.62;1692694;83;21824;-41
2021/12/01 10:48:24;;;;;;;9.33;7.60;;;;;;;2.75;70.49;97650.05;1684460;84;20999;-41
2021/12/01 10:50:51;;;;;;;9.43;8.28;;;;;;;2.78;70.45;97657.37;1706748;84;21035;-41
2021/12/01 10:53:22;;;;;;;11.83;8.70;;;;;;;2.78;70.05;97661.94;1687427;84;21309;-41
2021/12/01 10:55:59;;;;;;;9.68;7.97;;;;;;;2.73;70.13;97664.88;1700546;84;21094;-41
2021/12/01 10:58:40;;;;;;;9.85;7.72;;;;;;;2.69;70.36;97659.47;1705894;84;21220;-41
2021/12/01 11:01:23;;;;;;;10.72;8.33;;;;;;;2.74;70.27;97664.55;1689528;84;21555;-41
2021/12/01 11:03:51;;;;;;;10.43;8.15;;;;;;;2.79;70.10;97665.61;1691860;83;21505;-41
2021/12/01 11:06:21;;;;;;;10.30;8.28;;;;;;;2.83;69.80;97659.77;1689638;84;21117;-41
2021/12/01 11:09:01;;;;;;;8.93;7.65;;;;;;;2.81;69.60;97663.94;1678893;85;21113;-41
2021/12/01 11:11:43;;;;;;;9.63;8.18;;;;;;;2.78;69.18;97666.73;1693598;82;22002;-41
2021/12/01 11:14:14;;;;;;;9.28;8.28;;;;;;;2.79;69.70;97664.27;1678885;85;21112;-41
2021/12/01 11:16:43;;;;;;;9.13;8.20;;;;;;;2.87;69.96;97663.86;1720883;82;21531;-41
2021/12/01 11:19:11;;;;;;;12.88;10.15;;;;;;;2.96;69.70;97671.90;1726852;82;20971;-41
2021/12/01 11:21:39;;;;;;;14.53;11.90;;;;;;;3.05;69.23;97676.48;1751273;82;21596;-41
2021/12/01 11:24:11;;;;;;;10.05;8.00;;;;;;;3.06;69.07;97678.05;1751370;82;21840;-41
2021/12/01 11:26:44;;;;;;;10.05;8.48;;;;;;;3.06;69.22;97679.38;1768878;80;21013;-41
2021/12/01 11:29:16;;;;;;;10.98;9.75;;;;;;;3.07;69.29;97684.17;1763882;80;20965;-41
2021/12/01 11:31:46;;;;;;;11.73;9.28;;;;;;;3.03;69.01;97680.09;1748090;82;21497;-41
2021/12/01 11:34:17;;;;;;;12.20;9.00;;;;;;;2.98;69.00;97685.72;1751359;82;20983;-41
2021/12/01 11:36:51;;;;;;;10.23;8.40;;;;;;;2.98;69.04;97695.09;1751199;82;21122;-41
2021/12/01 11:39:25;;;;;;;19.25;15.38;;;;;;;2.98;69.04;97695.09;1750930;82;21675;-41
2021/12/01 11:41:54;;;;;;;10.95;9.03;;;;;;;2.97;68.71;97695.43;1751001;82;21008;-41
2021/12/01 11:44:21;;;;;;;12.07;10.78;;;;;;;2.94;68.78;97700.94;1727811;82;21045;-40
2021/12/01 11:46:49;;;;;;;11.35;7.80;;;;;;;2.94;68.80;97698.25;1731492;80;21077;-41
2021/12/01 11:49:17;;;;;;;10.58;8.55;;;;;;;2.95;68.72;97699.78;1682887;84;21089;-41
2021/12/01 11:51:48;;;;;;;8.80;6.83;;;;;;;2.96;68.32;97701.34;1713552;83;21039;-41
2021/12/01 11:54:19;;;;;;;8.43;6.62;;;;;;;2.99;67.52;97701.22;1722027;82;20975;-40
2021/12/01 11:57:02;;;;;;;9.43;7.00;;;;;;;2.99;67.25;97708.70;1737400;81;20931;-41
2021/12/01 11:59:37;;;;;;;7.83;6.65;;;;;;;3.03;67.33;97713.55;1739196;82;21065;-41
2021/12/01 12:02:09;;;;;;;8.73;7.72;;;;;;;3.03;67.49;97722.15;1739950;82;21179;-41
2021/12/01 12:04:45;;;;;;;10.58;7.87;;;;;;;3.04;67.18;97724.48;1700583;82;20925;-41